Time;durP1;ratioP1;P1;durP2;ratioP2;P2;SDS_P1;SDS_P2;PMS_P1;PMS_P2;Temp;Humidity;BMP_temperature;BMP_pressure;BME280_temperature;BME280_humidity;BME280_pressure;Samples;Min_cycle;Max_cycle;Signal;HPM_P1;HPM_P2
2023/07/05 00:00:52;;;;;;;0.22;0.22;;;24.70;93.50;;;;;;5112527;27;20280;-81
2023/07/05 00:03:21;;;;;;;0.30;0.30;;;24.70;93.40;;;;;;5118543;27;20206;-80
2023/07/05 00:05:50;;;;;;;0.35;0.32;;;24.70;93.40;;;;;;5098482;27;20595;-80
2023/07/05 00:08:18;;;;;;;0.35;0.25;;;24.80;93.30;;;;;;5098078;27;20243;-79
2023/07/05 00:10:46;;;;;;;0.40;0.40;;;24.80;93.20;;;;;;5105655;27;20197;-79
2023/07/05 00:13:16;;;;;;;0.43;0.30;;;24.80;93.20;;;;;;5102227;27;20202;-81
2023/07/05 00:15:49;;;;;;;0.15;0.15;;;24.80;93.10;;;;;;5112346;27;20223;-80
2023/07/05 00:18:18;;;;;;;0.52;0.32;;;24.80;93.00;;;;;;5119581;27;20196;-79
2023/07/05 00:20:48;;;;;;;0.25;0.25;;;24.80;93.00;;;;;;5101484;27;20194;-79
2023/07/05 00:23:16;;;;;;;0.57;0.55;;;24.80;93.10;;;;;;5103693;27;20192;-79
2023/07/05 00:25:44;;;;;;;0.20;0.20;;;24.80;93.00;;;;;;5114242;27;20574;-80
2023/07/05 00:28:13;;;;;;;0.38;0.35;;;24.80;93.00;;;;;;5101619;27;20201;-81
2023/07/05 00:30:44;;;;;;;0.68;0.50;;;24.80;92.90;;;;;;5103784;27;20188;-81
2023/07/05 00:33:12;;;;;;;0.35;0.28;;;24.80;92.90;;;;;;5111341;27;20245;-80
2023/07/05 00:35:48;;;;;;;0.20;0.20;;;24.80;92.80;;;;;;5102188;27;20220;-80
2023/07/05 00:38:17;;;;;;;0.30;0.30;;;24.80;92.90;;;;;;5097461;27;20690;-79
2023/07/05 00:40:46;;;;;;;0.20;0.20;;;24.80;92.80;;;;;;5100046;28;20198;-80
2023/07/05 00:43:16;;;;;;;0.30;0.30;;;24.80;93.10;;;;;;5094563;28;20285;-79
2023/07/05 00:45:53;;;;;;;0.68;0.43;;;24.80;93.20;;;;;;5104346;28;20320;-80
2023/07/05 00:48:26;;;;;;;1.25;0.85;;;24.80;93.10;;;;;;5100457;27;20269;-80
2023/07/05 00:50:59;;;;;;;0.20;0.20;;;24.80;93.30;;;;;;5110020;27;20226;-80
2023/07/05 00:53:29;;;;;;;0.43;0.43;;;24.80;93.30;;;;;;5109346;27;20197;-79
2023/07/05 00:56:03;;;;;;;0.70;0.63;;;24.70;93.50;;;;;;5113385;27;20212;-80
2023/07/05 00:58:32;;;;;;;0.40;0.40;;;24.70;93.50;;;;;;5099330;27;20196;-81
2023/07/05 01:01:00;;;;;;;0.32;0.32;;;24.70;93.40;;;;;;5102314;27;20646;-80
2023/07/05 01:03:29;;;;;;;1.15;0.60;;;24.70;93.40;;;;;;5103805;27;20528;-79
2023/07/05 01:06:00;;;;;;;1.58;0.52;;;24.60;93.40;;;;;;5113803;27;20605;-79
2023/07/05 01:08:28;;;;;;;0.40;0.40;;;24.60;93.40;;;;;;5107074;28;20225;-80
2023/07/05 01:11:04;;;;;;;0.73;0.73;;;24.60;93.40;;;;;;5108059;27;20195;-80
2023/07/05 01:13:39;;;;;;;0.77;0.45;;;24.60;93.50;;;;;;5103661;27;20320;-81
2023/07/05 01:16:21;;;;;;;0.65;0.55;;;24.60;93.50;;;;;;5122119;27;20294;-80
2023/07/05 01:18:59;;;;;;;0.30;0.30;;;24.60;93.60;;;;;;5110889;27;20633;-79
2023/07/05 01:21:36;;;;;;;0.40;0.40;;;24.50;93.80;;;;;;5115294;27;20669;-81
2023/07/05 01:24:25;;;;;;;0.43;0.32;;;24.50;93.80;;;;;;5099275;27;20193;-81
2023/07/05 01:27:30;;;;;;;0.50;0.50;;;24.50;93.80;;;;;;5095527;28;20196;-81
2023/07/05 01:30:55;;;;;;;0.30;0.30;;;24.50;93.90;;;;;;5087643;27;20651;-80
2023/07/05 01:33:33;;;;;;;1.42;0.50;;;24.50;93.80;;;;;;5056933;28;20232;-79
2023/07/05 01:36:02;;;;;;;0.40;0.40;;;24.50;94.00;;;;;;5056040;28;20207;-80
2023/07/05 01:38:30;;;;;;;2.83;0.63;;;24.40;94.40;;;;;;5087430;27;20201;-79
2023/07/05 01:41:03;;;;;;;0.45;0.45;;;24.40;94.40;;;;;;5100963;27;20192;-80
2023/07/05 01:43:34;;;;;;;0.70;0.50;;;24.40;94.40;;;;;;5100382;27;20703;-79
2023/07/05 01:46:22;;;;;;;0.20;0.20;;;24.30;94.70;;;;;;5102240;27;20189;-78
2023/07/05 01:49:09;;;;;;;1.25;0.90;;;24.30;94.70;;;;;;5098348;28;20647;-79
2023/07/05 01:51:44;;;;;;;1.55;0.73;;;24.30;94.90;;;;;;5104684;27;20715;-79
2023/07/05 01:54:18;;;;;;;0.30;0.30;;;24.30;95.00;;;;;;5101864;27;20189;-79
2023/07/05 01:56:52;;;;;;;1.08;0.98;;;24.30;95.30;;;;;;5105115;27;20205;-79
2023/07/05 01:59:25;;;;;;;0.88;0.70;;;24.30;95.40;;;;;;5106368;27;20219;-81
2023/07/05 02:01:55;;;;;;;1.10;0.88;;;24.30;95.20;;;;;;5105546;27;20186;-80
2023/07/05 02:04:29;;;;;;;3.15;1.02;;;24.30;95.10;;;;;;5114894;27;20193;-81
2023/07/05 02:06:57;;;;;;;1.55;0.93;;;24.30;95.40;;;;;;5109616;27;20220;-81
2023/07/05 02:09:25;;;;;;;0.73;0.60;;;24.20;95.30;;;;;;5112611;27;20197;-80
2023/07/05 02:11:54;;;;;;;1.40;1.08;;;24.20;95.40;;;;;;5109064;27;20200;-80
2023/07/05 02:14:22;;;;;;;1.05;0.70;;;24.20;95.70;;;;;;5087513;28;20193;-82
2023/07/05 02:16:51;;;;;;;1.05;0.60;;;24.20;95.80;;;;;;5097201;27;20668;-81
2023/07/05 02:19:19;;;;;;;0.65;0.65;;;24.20;95.80;;;;;;5105201;27;20198;-79
2023/07/05 02:21:49;;;;;;;0.60;0.32;;;24.20;96.00;;;;;;5097561;28;20274;-79
2023/07/05 02:24:17;;;;;;;0.80;0.75;;;24.30;96.20;;;;;;5099091;28;20189;-79
2023/07/05 02:26:45;;;;;;;5.22;0.95;;;24.20;96.30;;;;;;5106970;27;20197;-80
2023/07/05 02:29:14;;;;;;;2.03;1.08;;;24.20;96.60;;;;;;5093547;28;20295;-81
2023/07/05 02:31:42;;;;;;;1.52;1.10;;;24.20;96.60;;;;;;5109860;28;20238;-79
2023/07/05 02:34:11;;;;;;;0.77;0.68;;;24.20;96.40;;;;;;5103832;28;20217;-80
2023/07/05 02:36:40;;;;;;;1.38;1.05;;;24.20;96.30;;;;;;5105893;28;20208;-80
2023/07/05 02:39:09;;;;;;;2.20;1.35;;;24.20;96.20;;;;;;5100304;28;20193;-79
2023/07/05 02:41:38;;;;;;;0.35;0.35;;;24.30;96.00;;;;;;5090722;28;20197;-80
2023/07/05 02:44:07;;;;;;;0.28;0.28;;;24.30;95.90;;;;;;5092638;28;20196;-80
2023/07/05 02:46:36;;;;;;;1.00;0.95;;;24.30;95.80;;;;;;5108393;28;20196;-80
2023/07/05 02:49:05;;;;;;;0.40;0.40;;;24.30;95.80;;;;;;5102393;28;20266;-79
2023/07/05 02:51:33;;;;;;;0.30;0.30;;;24.30;95.80;;;;;;5102197;28;20189;-81
2023/07/05 02:54:01;;;;;;;4.47;0.63;;;24.30;96.00;;;;;;5099828;28;20194;-79
2023/07/05 02:56:31;;;;;;;0.50;0.45;;;24.30;96.00;;;;;;5110553;28;20449;-80
2023/07/05 02:58:59;;;;;;;0.57;0.55;;;24.30;96.00;;;;;;5096706;28;20626;-79
2023/07/05 03:01:27;;;;;;;1.55;1.05;;;24.30;96.10;;;;;;5105298;28;20201;-80
2023/07/05 03:03:56;;;;;;;0.47;0.47;;;24.30;96.00;;;;;;5108596;28;20641;-81
2023/07/05 03:06:24;;;;;;;0.63;0.63;;;24.30;96.00;;;;;;5108109;28;22771;-80
2023/07/05 03:08:53;;;;;;;0.55;0.52;;;24.30;96.00;;;;;;5103337;27;20192;-80
2023/07/05 03:11:21;;;;;;;0.70;0.60;;;24.40;96.30;;;;;;5099067;28;20201;-80
2023/07/05 03:13:51;;;;;;;5.60;0.95;;;24.40;95.80;;;;;;5109582;27;20205;-79
2023/07/05 03:16:19;;;;;;;1.10;0.88;;;24.40;95.90;;;;;;5091484;28;20301;-78
2023/07/05 03:18:47;;;;;;;11.88;0.85;;;24.40;96.00;;;;;;5109602;28;20654;-79
2023/07/05 03:21:18;;;;;;;1.73;1.02;;;24.40;96.20;;;;;;5109506;28;20195;-80
2023/07/05 03:23:46;;;;;;;0.70;0.70;;;24.40;96.00;;;;;;5107971;28;20555;-79
2023/07/05 03:26:15;;;;;;;0.25;0.25;;;24.40;95.80;;;;;;5098561;28;20246;-79
2023/07/05 03:28:43;;;;;;;1.05;0.85;;;24.50;95.80;;;;;;5099715;27;20217;-79
2023/07/05 03:31:14;;;;;;;0.73;0.68;;;24.50;95.70;;;;;;5116906;27;20188;-79
2023/07/05 03:33:43;;;;;;;0.88;0.60;;;24.50;95.80;;;;;;5111906;27;20280;-80
2023/07/05 03:36:14;;;;;;;0.75;0.75;;;24.60;95.80;;;;;;5118512;27;20207;-80
2023/07/05 03:38:43;;;;;;;0.50;0.50;;;24.50;95.80;;;;;;5095123;27;20186;-79
2023/07/05 03:41:14;;;;;;;0.40;0.40;;;24.60;95.70;;;;;;5112361;27;20201;-79
2023/07/05 03:43:43;;;;;;;0.50;0.50;;;24.60;95.70;;;;;;5122203;27;20192;-79
2023/07/05 03:46:15;;;;;;;0.50;0.50;;;24.70;95.70;;;;;;5103963;27;20194;-80
2023/07/05 03:48:45;;;;;;;1.45;1.20;;;24.60;95.80;;;;;;5117090;27;20212;-79
2023/07/05 03:51:16;;;;;;;0.40;0.40;;;24.70;95.80;;;;;;5106941;27;20205;-80
2023/07/05 03:53:48;;;;;;;1.13;0.52;;;24.70;95.70;;;;;;5103651;27;20186;-80
2023/07/05 03:56:17;;;;;;;1.92;1.02;;;24.80;95.80;;;;;;5112644;27;20654;-80
2023/07/05 03:58:46;;;;;;;0.30;0.30;;;24.80;95.70;;;;;;5099176;27;20186;-80
2023/07/05 04:01:19;;;;;;;0.60;0.60;;;24.80;95.70;;;;;;5097032;27;20205;-79
2023/07/05 04:03:49;;;;;;;1.35;0.80;;;24.90;95.90;;;;;;5100552;27;20684;-79
2023/07/05 04:06:19;;;;;;;0.50;0.50;;;24.90;95.90;;;;;;5095551;27;20196;-79
2023/07/05 04:08:48;;;;;;;4.68;1.38;;;24.90;95.70;;;;;;5096129;27;20229;-79
2023/07/05 04:11:16;;;;;;;1.02;0.65;;;25.00;95.70;;;;;;5093496;28;20557;-78
2023/07/05 04:13:46;;;;;;;0.55;0.43;;;25.00;95.60;;;;;;5098034;27;20320;-78
2023/07/05 04:16:18;;;;;;;0.80;0.80;;;25.00;95.60;;;;;;5116054;27;20765;-79
2023/07/05 04:18:48;;;;;;;0.85;0.70;;;25.10;95.70;;;;;;5104116;27;20277;-79
2023/07/05 04:21:16;;;;;;;0.57;0.57;;;25.10;95.70;;;;;;5106447;27;20654;-79
2023/07/05 04:23:45;;;;;;;1.85;0.63;;;25.20;95.60;;;;;;5103294;27;20220;-80
2023/07/05 04:26:15;;;;;;;0.55;0.55;;;25.20;95.60;;;;;;5094750;27;20200;-79
2023/07/05 04:28:45;;;;;;;0.90;0.63;;;25.20;95.50;;;;;;5122547;27;20641;-80
2023/07/05 04:31:17;;;;;;;0.88;0.60;;;25.30;95.60;;;;;;5102941;27;20668;-80
2023/07/05 04:33:47;;;;;;;0.40;0.40;;;25.30;95.50;;;;;;5098534;28;20193;-81
2023/07/05 04:36:15;;;;;;;0.75;0.75;;;25.40;95.40;;;;;;5103539;27;20287;-79
2023/07/05 04:38:56;;;;;;;1.55;0.60;;;25.40;95.30;;;;;;5094303;28;20213;-79
2023/07/05 04:41:24;;;;;;;1.30;0.88;;;25.40;95.30;;;;;;5104533;27;20193;-79
2023/07/05 04:43:53;;;;;;;1.88;0.60;;;25.50;95.30;;;;;;5111721;27;20225;-79
2023/07/05 04:46:21;;;;;;;0.60;0.60;;;25.50;95.20;;;;;;5103745;27;20265;-81
2023/07/05 04:48:52;;;;;;;1.42;0.90;;;25.50;95.20;;;;;;5094149;27;20529;-80
2023/07/05 04:51:20;;;;;;;0.32;0.32;;;25.50;95.20;;;;;;5107969;28;20199;-80
2023/07/05 04:53:48;;;;;;;4.10;1.17;;;25.60;95.10;;;;;;5101917;28;20557;-80
2023/07/05 04:56:17;;;;;;;0.98;0.65;;;25.60;95.10;;;;;;5101196;27;20637;-81
2023/07/05 04:58:48;;;;;;;0.93;0.50;;;25.70;95.10;;;;;;5104741;27;20224;-81
2023/07/05 05:01:18;;;;;;;0.40;0.40;;;25.70;95.00;;;;;;5095490;28;20289;-79
2023/07/05 05:03:47;;;;;;;1.17;0.75;;;25.80;95.00;;;;;;5103030;28;20201;-79
2023/07/05 05:06:16;;;;;;;1.08;0.85;;;25.80;94.90;;;;;;5098936;28;20577;-79
2023/07/05 05:08:45;;;;;;;0.32;0.32;;;25.80;94.80;;;;;;5103677;27;20196;-79
2023/07/05 05:11:13;;;;;;;3.20;0.47;;;25.80;94.80;;;;;;5099563;27;20185;-78
2023/07/05 05:13:41;;;;;;;2.53;1.67;;;25.90;94.80;;;;;;5123180;27;20646;-81
2023/07/05 05:16:10;;;;;;;0.82;0.60;;;25.90;94.70;;;;;;5101423;27;20644;-80
2023/07/05 05:18:38;;;;;;;1.13;0.60;;;26.00;94.70;;;;;;5111100;27;20284;-81
2023/07/05 05:21:07;;;;;;;0.50;0.50;;;26.00;94.60;;;;;;5123594;27;20205;-80
2023/07/05 05:23:37;;;;;;;1.63;0.85;;;26.10;94.60;;;;;;5108168;28;20208;-81
2023/07/05 05:26:06;;;;;;;0.98;0.77;;;26.10;94.50;;;;;;5110335;28;20196;-83
2023/07/05 05:28:34;;;;;;;0.65;0.65;;;26.10;94.40;;;;;;5114393;27;20189;-80
2023/07/05 05:31:05;;;;;;;1.60;0.63;;;26.20;94.40;;;;;;5107015;27;20212;-81
2023/07/05 05:33:33;;;;;;;1.17;0.63;;;26.20;94.40;;;;;;5096458;27;20189;-82
2023/07/05 05:36:02;;;;;;;1.83;1.35;;;26.20;94.30;;;;;;5107568;28;20208;-82
2023/07/05 05:38:30;;;;;;;0.90;0.90;;;26.30;94.30;;;;;;5102756;27;20360;-82
2023/07/05 05:41:07;;;;;;;3.25;0.98;;;26.30;94.30;;;;;;5094069;28;20282;-84
2023/07/05 05:43:36;;;;;;;0.60;0.60;;;26.40;94.30;;;;;;5100848;28;20193;-83
2023/07/05 05:46:04;;;;;;;1.00;0.82;;;26.40;94.30;;;;;;5106436;27;20608;-82
2023/07/05 05:48:33;;;;;;;1.67;1.00;;;26.40;94.00;;;;;;5112065;27;20293;-82
2023/07/05 05:51:01;;;;;;;3.78;1.33;;;26.50;93.90;;;;;;5090119;28;20190;-83
2023/07/05 05:53:30;;;;;;;3.25;1.65;;;26.50;93.70;;;;;;5094793;28;20239;-83
2023/07/05 05:55:58;;;;;;;1.70;1.25;;;26.50;93.50;;;;;;5104921;27;20657;-81
2023/07/05 05:58:28;;;;;;;0.57;0.52;;;26.60;93.30;;;;;;5093740;27;20301;-83
2023/07/05 06:00:58;;;;;;;0.45;0.45;;;26.60;93.10;;;;;;5094708;27;20608;-83
2023/07/05 06:03:26;;;;;;;1.27;1.17;;;26.60;92.90;;;;;;5100274;27;20202;-83
2023/07/05 06:05:55;;;;;;;0.63;0.52;;;26.70;92.90;;;;;;5098223;27;20202;-84
2023/07/05 06:08:27;;;;;;;1.60;1.45;;;26.70;92.60;;;;;;5131746;27;20224;-85
2023/07/05 06:10:56;;;;;;;2.92;0.95;;;26.70;92.40;;;;;;5102178;27;20216;-84
2023/07/05 06:13:28;;;;;;;1.05;0.90;;;26.80;92.50;;;;;;5112884;27;20283;-86
2023/07/05 06:15:58;;;;;;;0.90;0.50;;;26.80;92.80;;;;;;5093293;27;20184;-84
2023/07/05 06:18:42;;;;;;;1.08;0.60;;;26.90;92.90;;;;;;5107634;27;20232;-84
2023/07/05 06:21:11;;;;;;;1.08;0.82;;;27.00;93.00;;;;;;5122906;27;20193;-85
2023/07/05 06:23:40;;;;;;;0.70;0.70;;;27.00;92.80;;;;;;5120887;27;20196;-84
2023/07/05 06:26:09;;;;;;;0.47;0.47;;;27.00;92.60;;;;;;5093240;28;20219;-83
2023/07/05 06:28:39;;;;;;;0.60;0.50;;;27.00;92.70;;;;;;5104056;28;20192;-85
2023/07/05 06:31:09;;;;;;;1.13;0.50;;;27.10;92.60;;;;;;5085547;28;20193;-83
2023/07/05 06:33:39;;;;;;;2.38;1.40;;;27.10;92.30;;;;;;5092413;28;20655;-84
2023/07/05 06:36:09;;;;;;;0.40;0.40;;;27.20;92.40;;;;;;5090407;28;20205;-84
2023/07/05 06:38:38;;;;;;;1.15;0.70;;;27.30;92.50;;;;;;5096343;28;20285;-84
2023/07/05 06:41:06;;;;;;;0.50;0.50;;;27.30;92.40;;;;;;5092548;28;20202;-84
2023/07/05 06:43:35;;;;;;;0.82;0.70;;;27.40;92.10;;;;;;5092934;28;20204;-83
2023/07/05 06:46:05;;;;;;;1.05;0.65;;;27.50;92.10;;;;;;5093051;28;20204;-85
2023/07/05 06:48:33;;;;;;;1.00;0.90;;;27.50;91.90;;;;;;5103694;28;20196;-86
2023/07/05 06:51:02;;;;;;;1.27;0.73;;;27.60;91.90;;;;;;5103865;28;20648;-84
2023/07/05 06:53:30;;;;;;;0.70;0.65;;;27.60;91.70;;;;;;5106133;28;20705;-85
2023/07/05 06:56:02;;;;;;;1.70;1.27;;;27.60;91.30;;;;;;5090637;28;20255;-85
2023/07/05 06:58:30;;;;;;;1.42;1.10;;;27.70;91.50;;;;;;5102468;28;20221;-85
2023/07/05 07:01:01;;;;;;;2.17;1.48;;;27.70;91.30;;;;;;5091219;28;20208;-84
2023/07/05 07:03:31;;;;;;;1.33;0.80;;;27.80;91.30;;;;;;5093409;28;20189;-84
2023/07/05 07:06:00;;;;;;;0.60;0.45;;;27.90;91.40;;;;;;5097309;27;20204;-86
2023/07/05 07:08:31;;;;;;;0.75;0.55;;;27.90;91.40;;;;;;5095099;28;20244;-84
2023/07/05 07:11:01;;;;;;;0.70;0.40;;;27.90;91.20;;;;;;5093015;28;20579;-85
2023/07/05 07:13:31;;;;;;;1.40;0.90;;;27.90;91.30;;;;;;5096343;28;20274;-86
2023/07/05 07:16:07;;;;;;;2.60;0.90;;;28.00;91.30;;;;;;5095588;28;20200;-84
2023/07/05 07:18:37;;;;;;;1.88;0.90;;;28.00;91.30;;;;;;5107768;27;20573;-84
2023/07/05 07:21:08;;;;;;;7.57;1.95;;;28.10;91.30;;;;;;5099238;27;20200;-84
2023/07/05 07:23:37;;;;;;;7.18;1.98;;;28.10;91.20;;;;;;5102631;27;20189;-85
2023/07/05 07:26:08;;;;;;;1.38;1.23;;;28.10;91.10;;;;;;5101718;27;20559;-86
2023/07/05 07:28:37;;;;;;;0.73;0.55;;;28.10;91.10;;;;;;5100947;28;20200;-85
2023/07/05 07:31:14;;;;;;;0.50;0.50;;;28.10;90.80;;;;;;5092880;28;20560;-83
2023/07/05 07:33:45;;;;;;;1.65;0.68;;;28.20;90.90;;;;;;5094898;28;20204;-82
2023/07/05 07:36:16;;;;;;;1.27;0.95;;;28.20;90.80;;;;;;5093916;28;20561;-84
2023/07/05 07:38:45;;;;;;;0.30;0.30;;;28.30;90.80;;;;;;5096464;27;20220;-85
2023/07/05 07:41:15;;;;;;;0.40;0.40;;;28.30;90.60;;;;;;5099540;28;20205;-83
2023/07/05 07:43:43;;;;;;;0.98;0.60;;;28.40;90.60;;;;;;5098529;28;20602;-83
2023/07/05 07:46:14;;;;;;;1.92;1.00;;;28.50;90.50;;;;;;5095735;28;20291;-84
2023/07/05 07:48:47;;;;;;;1.58;1.05;;;28.50;90.40;;;;;;5104237;27;20862;-83
2023/07/05 07:51:16;;;;;;;1.65;1.38;;;28.60;90.40;;;;;;5093881;27;20197;-85
2023/07/05 07:54:05;;;;;;;0.88;0.80;;;28.60;90.20;;;;;;5099024;28;20213;-83
2023/07/05 07:56:34;;;;;;;0.98;0.95;;;28.60;89.50;;;;;;5105105;27;20296;-83
2023/07/05 07:59:06;;;;;;;1.60;0.68;;;28.60;89.10;;;;;;5101568;27;20222;-83
2023/07/05 08:01:38;;;;;;;1.63;1.05;;;28.60;89.40;;;;;;5121946;27;20223;-82
2023/07/05 08:04:10;;;;;;;0.70;0.65;;;28.60;88.20;;;;;;5100067;27;20181;-83
2023/07/05 08:06:41;;;;;;;1.08;0.75;;;28.70;88.60;;;;;;5100723;27;20233;-82
2023/07/05 08:09:12;;;;;;;0.50;0.50;;;28.70;89.00;;;;;;5106248;28;20197;-82
2023/07/05 08:11:40;;;;;;;1.15;0.70;;;28.80;89.20;;;;;;5104730;27;20193;-84
2023/07/05 08:14:09;;;;;;;0.85;0.85;;;28.80;89.20;;;;;;5093788;28;20216;-82
2023/07/05 08:16:38;;;;;;;0.40;0.30;;;28.90;89.30;;;;;;5093881;27;20238;-84
2023/07/05 08:19:08;;;;;;;0.73;0.73;;;28.90;89.20;;;;;;5094116;28;20236;-83
2023/07/05 08:21:37;;;;;;;1.50;1.13;;;28.90;88.60;;;;;;5099628;27;20182;-84
2023/07/05 08:24:06;;;;;;;3.72;1.52;;;28.90;87.50;;;;;;5093936;28;20277;-83
2023/07/05 08:26:54;;;;;;;1.00;0.82;;;28.90;87.50;;;;;;5104364;27;20194;-84
2023/07/05 08:29:22;;;;;;;1.85;1.15;;;29.00;87.50;;;;;;5104763;28;20643;-83
2023/07/05 08:31:50;;;;;;;0.80;0.77;;;28.90;86.60;;;;;;5106286;27;20784;-84
2023/07/05 08:34:21;;;;;;;4.50;1.45;;;29.00;85.30;;;;;;5098246;27;20205;-84
2023/07/05 08:36:49;;;;;;;1.63;0.52;;;29.00;85.50;;;;;;5101243;28;20193;-84
2023/07/05 08:39:17;;;;;;;1.95;1.33;;;29.00;84.20;;;;;;5107735;28;20215;-82
2023/07/05 08:42:01;;;;;;;0.60;0.60;;;29.00;84.40;;;;;;5107197;27;20203;-83
2023/07/05 08:44:48;;;;;;;0.63;0.63;;;29.10;84.50;;;;;;5094511;28;20630;-82
2023/07/05 08:47:24;;;;;;;1.85;0.82;;;29.20;84.10;;;;;;5107480;28;20201;-84
2023/07/05 08:50:05;;;;;;;1.55;0.75;;;29.20;84.30;;;;;;5095719;28;20608;-83
2023/07/05 08:52:58;;;;;;;1.20;0.80;;;29.30;84.00;;;;;;5104600;27;20280;-83
2023/07/05 08:55:33;;;;;;;2.10;1.10;;;29.40;84.70;;;;;;5102498;27;20211;-85
2023/07/05 08:58:02;;;;;;;2.17;1.27;;;29.40;84.50;;;;;;5094936;28;20297;-83
2023/07/05 09:00:41;;;;;;;0.82;0.75;;;29.50;83.50;;;;;;5094108;28;20220;-84
2023/07/05 09:03:11;;;;;;;0.55;0.50;;;29.50;83.10;;;;;;5097395;28;20223;-83
2023/07/05 09:05:48;;;;;;;0.70;0.70;;;29.60;82.80;;;;;;5094090;27;20510;-82
2023/07/05 09:08:25;;;;;;;0.63;0.63;;;29.70;82.80;;;;;;5095464;28;20225;-83
2023/07/05 09:10:56;;;;;;;0.50;0.50;;;29.70;82.20;;;;;;5103232;27;20282;-84
2023/07/05 09:13:33;;;;;;;1.95;1.13;;;29.80;81.10;;;;;;5116705;27;20669;-83
2023/07/05 09:16:10;;;;;;;0.50;0.50;;;29.80;80.30;;;;;;5102683;27;20197;-82
2023/07/05 09:18:54;;;;;;;1.38;0.80;;;29.90;80.00;;;;;;5098721;28;20186;-83
2023/07/05 09:21:32;;;;;;;5.00;1.15;;;29.90;79.60;;;;;;5102436;27;20206;-83
2023/07/05 09:24:10;;;;;;;0.75;0.40;;;30.00;79.10;;;;;;5092371;28;20286;-83
2023/07/05 09:26:41;;;;;;;0.68;0.68;;;30.00;78.50;;;;;;5094827;28;20192;-83
2023/07/05 09:29:17;;;;;;;0.70;0.70;;;30.10;78.40;;;;;;5097364;28;20554;-83
2023/07/05 09:31:48;;;;;;;0.70;0.50;;;30.10;78.60;;;;;;5111700;27;20208;-82
2023/07/05 09:34:27;;;;;;;1.05;0.82;;;30.20;78.80;;;;;;5102832;27;20193;-83
2023/07/05 09:36:58;;;;;;;0.90;0.77;;;30.30;78.10;;;;;;5114368;27;20184;-83
2023/07/05 09:39:35;;;;;;;0.75;0.75;;;30.30;77.90;;;;;;5102289;27;20193;-86
2023/07/05 09:42:07;;;;;;;0.57;0.40;;;30.40;77.90;;;;;;5095396;28;20276;-84
2023/07/05 09:44:36;;;;;;;1.27;1.17;;;30.40;77.30;;;;;;5093134;28;20193;-85
2023/07/05 09:47:05;;;;;;;0.45;0.40;;;30.50;77.20;;;;;;5096020;28;20189;-85
2023/07/05 09:49:33;;;;;;;0.43;0.43;;;30.60;76.80;;;;;;5091182;28;20193;-85
2023/07/05 09:52:05;;;;;;;1.33;0.90;;;30.60;76.60;;;;;;5092113;28;20205;-84
2023/07/05 09:54:34;;;;;;;1.65;0.90;;;30.70;76.30;;;;;;5091519;28;20193;-86
2023/07/05 09:57:06;;;;;;;0.60;0.60;;;30.70;76.10;;;;;;5088821;28;20531;-85
2023/07/05 09:59:35;;;;;;;0.75;0.40;;;30.80;74.70;;;;;;5091789;27;20200;-85
2023/07/05 10:02:19;;;;;;;0.30;0.30;;;30.80;74.50;;;;;;5101174;27;20208;-84
2023/07/05 10:04:49;;;;;;;0.63;0.50;;;30.90;73.60;;;;;;5102477;27;20211;-85
2023/07/05 10:07:20;;;;;;;0.40;0.40;;;30.90;73.90;;;;;;5106217;27;20220;-84
2023/07/05 10:10:01;;;;;;;0.77;0.70;;;31.00;73.60;;;;;;5108487;27;20216;-85
2023/07/05 10:12:34;;;;;;;0.40;0.32;;;31.10;73.80;;;;;;5098723;27;20194;-86
2023/07/05 10:15:04;;;;;;;3.35;1.33;;;31.10;73.40;;;;;;5103198;27;20185;-86
2023/07/05 10:17:44;;;;;;;1.58;0.93;;;31.20;72.60;;;;;;5114800;27;20279;-89
2023/07/05 10:20:23;;;;;;;0.52;0.52;;;31.20;71.80;;;;;;5096769;28;20764;-84
2023/07/05 10:23:02;;;;;;;1.13;0.60;;;31.30;71.30;;;;;;5110231;27;20199;-85
2023/07/05 10:25:33;;;;;;;0.60;0.60;;;31.30;69.70;;;;;;5104255;27;20271;-84
2023/07/05 10:28:04;;;;;;;0.50;0.43;;;31.40;68.80;;;;;;5089529;28;20875;-86
2023/07/05 10:30:47;;;;;;;0.82;0.55;;;31.50;69.60;;;;;;5095451;28;20279;-85
2023/07/05 10:33:20;;;;;;;0.68;0.63;;;31.60;69.60;;;;;;5104199;28;20193;-84
2023/07/05 10:35:56;;;;;;;1.23;0.80;;;31.60;67.00;;;;;;5091916;28;20195;-84
2023/07/05 10:38:28;;;;;;;0.30;0.30;;;31.70;67.90;;;;;;5090022;28;20259;-87
2023/07/05 10:41:00;;;;;;;0.47;0.40;;;31.70;66.10;;;;;;5094940;28;20217;-85
2023/07/05 10:43:31;;;;;;;0.40;0.40;;;31.70;64.40;;;;;;5126618;28;20192;-81
2023/07/05 10:46:02;;;;;;;0.30;0.30;;;31.80;65.70;;;;;;5116061;27;20184;-85
2023/07/05 10:48:40;;;;;;;4.68;1.05;;;31.90;65.70;;;;;;5091807;28;20185;-86
2023/07/05 10:51:18;;;;;;;2.35;1.23;;;31.90;64.20;;;;;;5113157;28;20195;-84
2023/07/05 10:53:54;;;;;;;1.85;0.75;;;32.00;64.10;;;;;;5109704;28;20293;-83
2023/07/05 10:56:26;;;;;;;0.65;0.47;;;32.00;62.60;;;;;;5101826;28;20197;-86
2023/07/05 10:59:02;;;;;;;0.85;0.80;;;32.10;62.30;;;;;;5095869;27;20221;-83
2023/07/05 11:01:38;;;;;;;0.80;0.80;;;32.10;61.10;;;;;;5098833;28;20209;-85
2023/07/05 11:04:12;;;;;;;0.73;0.65;;;32.10;61.70;;;;;;5102472;28;20622;-85
2023/07/05 11:06:45;;;;;;;0.50;0.50;;;32.20;62.60;;;;;;5105098;28;20221;-84
2023/07/05 11:09:15;;;;;;;2.92;0.95;;;32.30;61.20;;;;;;5093850;28;20227;-83
2023/07/05 11:11:48;;;;;;;0.40;0.40;;;32.30;61.20;;;;;;5093195;28;20198;-86
2023/07/05 11:14:17;;;;;;;0.73;0.40;;;32.30;59.30;;;;;;5093282;28;20302;-82
2023/07/05 11:16:47;;;;;;;0.30;0.30;;;32.40;60.40;;;;;;5105066;28;20207;-84
2023/07/05 11:19:18;;;;;;;1.27;1.00;;;32.50;59.90;;;;;;5110346;28;20189;-84
2023/07/05 11:21:48;;;;;;;0.70;0.57;;;32.50;59.60;;;;;;5106079;28;20217;-84
2023/07/05 11:24:44;;;;;;;0.43;0.43;;;32.50;56.80;;;;;;5097963;27;20194;-83
2023/07/05 11:27:42;;;;;;;0.88;0.85;;;32.60;58.20;;;;;;5122083;28;20212;-84
2023/07/05 11:30:42;;;;;;;0.43;0.43;;;32.70;58.40;;;;;;5110729;27;20194;-84
2023/07/05 11:33:23;;;;;;;0.60;0.60;;;32.70;56.20;;;;;;5122237;27;20189;-86
2023/07/05 11:35:54;;;;;;;0.65;0.50;;;32.70;56.60;;;;;;5113039;27;20191;-85
2023/07/05 11:38:55;;;;;;;0.50;0.30;;;32.80;56.90;;;;;;5114021;27;20674;-84
2023/07/05 11:41:31;;;;;;;2.60;0.57;;;32.80;57.50;;;;;;5101636;28;20228;-84
2023/07/05 11:44:02;;;;;;;1.02;0.55;;;32.90;57.80;;;;;;5091711;28;20186;-85
2023/07/05 11:46:40;;;;;;;0.40;0.40;;;33.00;56.80;;;;;;5101928;27;20551;-85
2023/07/05 11:49:30;;;;;;;0.45;0.45;;;32.90;56.10;;;;;;5106241;28;20220;-83
2023/07/05 11:52:04;;;;;;;0.28;0.28;;;33.00;55.50;;;;;;5126176;27;20200;-85
2023/07/05 11:54:39;;;;;;;2.00;1.08;;;33.00;55.40;;;;;;5103830;27;20187;-86
2023/07/05 11:57:12;;;;;;;1.08;0.95;;;33.10;56.00;;;;;;5110416;28;20185;-85
2023/07/05 11:59:49;;;;;;;0.52;0.52;;;33.10;55.80;;;;;;5100985;28;20196;-83
2023/07/05 12:02:44;;;;;;;0.63;0.52;;;33.10;55.40;;;;;;5104478;27;20270;-85
2023/07/05 12:05:17;;;;;;;2.85;0.63;;;33.20;55.70;;;;;;5108545;28;20904;-86
2023/07/05 12:07:48;;;;;;;3.25;0.65;;;33.30;56.30;;;;;;5109655;28;20224;-81
2023/07/05 12:10:21;;;;;;;0.30;0.30;;;33.30;55.90;;;;;;5098562;27;20192;-83
2023/07/05 12:12:50;;;;;;;1.42;0.93;;;33.40;55.40;;;;;;5120509;27;20208;-81
2023/07/05 12:15:19;;;;;;;1.08;0.63;;;33.40;56.10;;;;;;5092046;28;20193;-82
2023/07/05 12:17:48;;;;;;;0.40;0.40;;;33.50;56.70;;;;;;5094207;28;20193;-81
2023/07/05 12:20:33;;;;;;;0.55;0.40;;;33.60;56.70;;;;;;5097941;27;20293;-84
2023/07/05 12:23:02;;;;;;;5.68;0.70;;;33.70;56.50;;;;;;5134890;27;20526;-84
2023/07/05 12:25:30;;;;;;;0.28;0.28;;;33.70;56.80;;;;;;5097620;27;20193;-83
2023/07/05 12:28:02;;;;;;;0.30;0.30;;;33.80;56.90;;;;;;5109213;27;20635;-82
2023/07/05 12:30:38;;;;;;;1.02;0.90;;;33.90;56.50;;;;;;5106446;27;20189;-84
2023/07/05 12:33:21;;;;;;;0.45;0.45;;;34.00;55.80;;;;;;5103146;27;20197;-83
2023/07/05 12:36:08;;;;;;;0.40;0.40;;;34.10;55.50;;;;;;5097279;28;20190;-84
2023/07/05 12:38:37;;;;;;;0.73;0.73;;;34.10;55.50;;;;;;5108022;28;20576;-84
2023/07/05 12:41:08;;;;;;;1.95;0.40;;;34.20;55.60;;;;;;5108620;28;20232;-83
2023/07/05 12:43:37;;;;;;;0.50;0.50;;;34.20;56.10;;;;;;5104523;27;20719;-84
2023/07/05 12:46:08;;;;;;;1.20;0.68;;;34.30;56.20;;;;;;5102147;28;20185;-84
2023/07/05 12:48:37;;;;;;;0.43;0.40;;;34.40;55.40;;;;;;5109813;27;20748;-84
2023/07/05 12:51:07;;;;;;;0.40;0.40;;;34.40;55.20;;;;;;5100251;28;20569;-85
2023/07/05 12:53:35;;;;;;;1.02;0.40;;;34.50;55.60;;;;;;5095614;28;20181;-85
2023/07/05 12:56:08;;;;;;;0.35;0.30;;;34.70;56.10;;;;;;5101236;27;20188;-83
2023/07/05 12:58:41;;;;;;;1.10;0.75;;;34.70;54.80;;;;;;5094595;28;20251;-84
2023/07/05 13:01:13;;;;;;;0.17;0.17;;;34.70;54.00;;;;;;5091356;28;20194;-83
2023/07/05 13:03:46;;;;;;;0.40;0.40;;;34.70;54.20;;;;;;5097936;28;20196;-85
2023/07/05 13:06:17;;;;;;;0.57;0.50;;;34.70;54.60;;;;;;5101219;27;20206;-83
2023/07/05 13:08:47;;;;;;;0.40;0.40;;;34.70;53.70;;;;;;5117457;27;20207;-85
2023/07/05 13:11:16;;;;;;;0.77;0.32;;;34.70;54.10;;;;;;5112477;27;20189;-86
2023/07/05 13:13:46;;;;;;;1.52;0.85;;;34.70;54.20;;;;;;5106707;27;20194;-84